createdAt,value
2019-04-16T00:01:38.966Z,18.17
2019-04-16T00:04:16.355Z,17.70
2019-04-16T00:06:58.614Z,17.62
2019-04-16T00:09:43.152Z,18.90
2019-04-16T00:12:23.631Z,18.20
2019-04-16T00:14:55.381Z,17.37
2019-04-16T00:17:26.542Z,17.85
2019-04-16T00:19:56.675Z,19.00
2019-04-16T00:22:34.273Z,19.17
2019-04-16T00:25:05.990Z,19.48
2019-04-16T00:27:37.277Z,19.40
2019-04-16T00:30:08.126Z,20.47
2019-04-16T00:32:39.969Z,19.90
2019-04-16T00:35:10.445Z,18.45
2019-04-16T00:37:42.123Z,18.35
2019-04-16T00:40:12.749Z,18.77
2019-04-16T00:42:42.822Z,19.23
2019-04-16T00:45:12.865Z,18.00
2019-04-16T00:47:44.529Z,19.00
2019-04-16T00:50:14.808Z,18.73
2019-04-16T00:52:45.428Z,18.40
2019-04-16T00:55:15.581Z,20.13
2019-04-16T00:57:48.649Z,18.20
2019-04-16T01:00:18.590Z,18.30
2019-04-16T01:02:51.382Z,18.23
2019-04-16T01:05:21.531Z,19.98
2019-04-16T01:07:54.239Z,18.40
2019-04-16T01:10:25.118Z,19.15
2019-04-16T01:12:55.855Z,19.52
2019-04-16T01:15:26.579Z,18.80
2019-04-16T01:17:57.705Z,18.07
2019-04-16T01:20:27.785Z,18.23
2019-04-16T01:22:57.841Z,18.53
2019-04-16T01:25:28.493Z,18.65
2019-04-16T01:28:13.910Z,18.25
2019-04-16T01:30:51.952Z,18.97
2019-04-16T01:33:24.052Z,19.10
2019-04-16T01:36:01.992Z,18.32
2019-04-16T01:38:34.703Z,17.90
2019-04-16T01:41:06.424Z,19.67
2019-04-16T01:43:36.374Z,19.05
2019-04-16T01:46:25.739Z,19.73
2019-04-16T01:48:56.294Z,19.27
2019-04-16T01:51:26.379Z,19.30
2019-04-16T01:53:56.320Z,19.67
2019-04-16T01:56:28.890Z,19.30
2019-04-16T01:58:58.015Z,19.67
2019-04-16T02:01:28.176Z,20.33
2019-04-16T02:03:59.157Z,19.10
2019-04-16T02:06:29.222Z,18.87
2019-04-16T02:09:01.726Z,19.67
2019-04-16T02:11:32.472Z,19.63
2019-04-16T02:14:02.689Z,19.00
2019-04-16T02:16:32.805Z,19.67
2019-04-16T02:19:02.870Z,18.60
2019-04-16T02:21:33.069Z,18.77
2019-04-16T02:24:03.171Z,19.90
2019-04-16T02:26:33.436Z,19.87
2019-04-16T02:29:03.522Z,20.03
2019-04-16T02:31:33.691Z,18.90
2019-04-16T02:34:03.782Z,18.73
2019-04-16T02:36:33.947Z,19.23
2019-04-16T02:39:05.794Z,19.50
2019-04-16T02:41:36.300Z,20.07
2019-04-16T02:44:06.296Z,17.70
2019-04-16T02:46:36.474Z,18.97
2019-04-16T02:49:06.546Z,18.70
2019-04-16T02:51:41.359Z,18.73
2019-04-16T02:54:14.651Z,18.40
2019-04-16T02:56:52.053Z,18.63
2019-04-16T02:59:23.561Z,19.03
2019-04-16T03:02:12.040Z,18.93
2019-04-16T03:04:43.988Z,18.00
2019-04-16T03:07:14.290Z,19.37
2019-04-16T03:09:44.418Z,19.17
2019-04-16T03:12:17.651Z,19.30
2019-04-16T03:14:47.823Z,19.67
2019-04-16T03:17:25.535Z,19.20
2019-04-16T03:19:57.224Z,20.17
2019-04-16T03:22:27.283Z,19.77
2019-04-16T03:24:57.233Z,19.00
2019-04-16T03:27:27.308Z,19.90
2019-04-16T03:30:02.893Z,19.97
2019-04-16T03:32:34.033Z,20.73
2019-04-16T03:35:02.494Z,20.60
2019-04-16T03:37:34.855Z,19.70
2019-04-16T03:40:16.463Z,18.77
2019-04-16T03:42:38.080Z,19.83
2019-04-16T03:45:09.826Z,19.13
2019-04-16T03:47:41.552Z,18.70
2019-04-16T03:50:12.207Z,18.83
2019-04-16T03:52:45.630Z,19.17
2019-04-16T03:55:14.208Z,18.73
2019-04-16T03:57:45.518Z,19.83
2019-04-16T04:00:17.805Z,19.50
2019-04-16T04:02:47.968Z,18.97
2019-04-16T04:05:19.060Z,19.20
2019-04-16T04:07:50.289Z,18.37
2019-04-16T04:10:30.345Z,19.13
2019-04-16T04:12:52.107Z,19.80
2019-04-16T04:15:25.823Z,19.10
2019-04-16T04:17:57.445Z,18.60
2019-04-16T04:20:27.396Z,19.30
2019-04-16T04:22:57.863Z,18.13
2019-04-16T04:25:28.044Z,19.00
2019-04-16T04:27:58.134Z,18.00
2019-04-16T04:30:28.712Z,18.60
2019-04-16T04:32:59.771Z,17.87
2019-04-16T04:35:29.860Z,17.57
2019-04-16T04:38:00.876Z,17.23
2019-04-16T04:40:43.887Z,16.67
2019-04-16T04:43:04.699Z,18.07
2019-04-16T04:45:37.717Z,17.63
2019-04-16T04:48:06.597Z,16.67
2019-04-16T04:50:36.660Z,17.90
2019-04-16T04:53:06.742Z,17.07
2019-04-16T04:55:37.260Z,16.57
2019-04-16T04:58:07.358Z,16.90
2019-04-16T05:00:40.185Z,16.67
2019-04-16T05:03:17.887Z,16.93
2019-04-16T05:05:56.792Z,17.80
2019-04-16T05:08:28.630Z,17.00
2019-04-16T05:11:02.589Z,16.83
2019-04-16T05:13:30.513Z,18.63
2019-04-16T05:16:01.900Z,25.23
2019-04-16T05:18:34.056Z,42.25
2019-04-16T05:21:04.064Z,23.27
2019-04-16T05:23:34.143Z,19.00
2019-04-16T05:26:05.325Z,17.77
2019-04-16T05:28:36.221Z,17.55
2019-04-16T05:31:07.283Z,16.73
2019-04-16T05:33:38.141Z,16.42
2019-04-16T05:36:11.047Z,15.95
2019-04-16T05:38:41.275Z,15.93
2019-04-16T05:41:13.460Z,15.58
2019-04-16T05:43:43.611Z,16.70
2019-04-16T05:46:14.207Z,16.50
2019-04-16T05:48:44.972Z,15.55
2019-04-16T05:51:15.618Z,16.05
2019-04-16T05:53:47.828Z,15.68
2019-04-16T05:56:24.769Z,15.38
2019-04-16T05:58:55.390Z,16.57
2019-04-16T06:01:30.685Z,15.58
2019-04-16T06:04:01.500Z,16.87
2019-04-16T06:06:32.517Z,16.40
2019-04-16T06:09:03.348Z,16.97
2019-04-16T06:11:36.451Z,16.37
2019-04-16T06:14:25.530Z,16.40
2019-04-16T06:17:03.751Z,17.05
2019-04-16T06:19:35.980Z,19.23
2019-04-16T06:22:28.343Z,25.05
2019-04-16T06:24:58.592Z,19.00
2019-04-16T06:27:42.987Z,17.60
2019-04-16T06:30:33.767Z,17.35
2019-04-16T06:33:04.369Z,16.85
2019-04-16T06:35:52.762Z,17.07
2019-04-16T06:38:25.016Z,15.83
2019-04-16T06:41:13.894Z,16.90
2019-04-16T06:43:46.009Z,16.50
2019-04-16T06:46:23.879Z,16.77
2019-04-16T06:48:55.990Z,15.90
2019-04-16T06:51:44.961Z,14.23
2019-04-16T06:54:35.344Z,15.80
2019-04-16T06:57:26.911Z,14.58
2019-04-16T07:00:10.611Z,14.00
2019-04-16T07:03:01.275Z,13.68
2019-04-16T07:05:37.595Z,43.38
2019-04-16T07:08:37.450Z,21.70
2019-04-16T07:11:07.076Z,16.37
2019-04-16T07:13:41.930Z,16.90
2019-04-16T07:16:09.403Z,15.57
2019-04-16T07:18:40.092Z,13.93
2019-04-16T07:21:10.453Z,14.90
2019-04-16T07:23:40.868Z,15.70
2019-04-16T07:26:14.592Z,14.47
2019-04-16T07:28:44.957Z,15.40
2019-04-16T07:31:37.890Z,15.60
2019-04-16T07:33:58.856Z,14.73
2019-04-16T07:36:48.806Z,14.83
2019-04-16T07:39:37.286Z,14.63
2019-04-16T07:42:14.024Z,15.57
2019-04-16T07:44:54.757Z,16.20
2019-04-16T07:47:39.415Z,15.10
2019-04-16T07:50:26.394Z,16.33
2019-04-16T07:53:15.097Z,17.67
2019-04-16T07:55:48.175Z,12.83
2019-04-16T07:58:18.514Z,18.77
2019-04-16T08:00:49.180Z,18.52
2019-04-16T08:03:19.441Z,19.70
2019-04-16T08:05:50.203Z,17.65
2019-04-16T08:08:24.418Z,17.10
2019-04-16T08:10:54.102Z,18.07
2019-04-16T08:13:25.949Z,19.73
2019-04-16T08:15:57.445Z,20.65
2019-04-16T08:18:30.004Z,20.10
2019-04-16T08:21:05.926Z,19.62
2019-04-16T08:23:40.463Z,19.62
2019-04-16T08:26:13.421Z,17.02
2019-04-16T08:28:43.485Z,19.05
2019-04-16T08:31:15.683Z,20.12
2019-04-16T08:33:46.237Z,19.23
2019-04-16T08:36:16.878Z,17.17
2019-04-16T08:38:48.595Z,19.27
2019-04-16T08:41:21.166Z,19.20
2019-04-16T08:43:51.446Z,19.82
2019-04-16T08:46:22.092Z,20.37
2019-04-16T08:48:54.368Z,19.87
2019-04-16T08:51:30.707Z,20.20
2019-04-16T08:53:59.038Z,21.05
2019-04-16T08:56:29.866Z,19.70
2019-04-16T08:59:01.376Z,19.95
2019-04-16T09:01:34.279Z,16.90
2019-04-16T09:04:05.010Z,18.10
2019-04-16T09:06:35.776Z,17.23
2019-04-16T09:09:18.380Z,17.07
2019-04-16T09:11:48.691Z,18.10
2019-04-16T09:14:20.954Z,19.33
2019-04-16T09:16:56.458Z,19.57
2019-04-16T09:19:27.497Z,17.75
2019-04-16T09:21:58.475Z,19.62
2019-04-16T09:24:34.017Z,16.97
2019-04-16T09:27:06.264Z,18.60
2019-04-16T09:29:39.350Z,21.42
2019-04-16T09:32:28.655Z,22.20
2019-04-16T09:35:14.268Z,21.15
2019-04-16T09:38:02.651Z,21.15
2019-04-16T09:40:57.095Z,21.23
2019-04-16T09:43:41.654Z,22.50
2019-04-16T09:46:21.114Z,20.65
2019-04-16T09:48:44.894Z,23.38
2019-04-16T09:51:18.658Z,23.87
2019-04-16T09:53:47.934Z,23.50
2019-04-16T09:56:31.469Z,22.87
2019-04-16T09:59:06.306Z,23.18
2019-04-16T10:01:50.616Z,24.57
2019-04-16T10:04:21.950Z,24.43
2019-04-16T10:06:52.641Z,23.95
2019-04-16T10:09:23.618Z,23.02
2019-04-16T10:11:57.094Z,24.27
2019-04-16T10:14:26.615Z,24.10
2019-04-16T10:16:57.264Z,24.50
2019-04-16T10:19:28.085Z,23.62
2019-04-16T10:21:58.946Z,24.50
2019-04-16T10:24:40.682Z,23.10
2019-04-16T10:27:13.069Z,20.90
2019-04-16T10:29:43.904Z,19.70
2019-04-16T10:32:17.522Z,21.60
2019-04-16T10:34:47.142Z,22.95
2019-04-16T10:37:25.876Z,22.85
2019-04-16T10:40:07.183Z,21.60
2019-04-16T10:42:56.331Z,19.80
2019-04-16T10:45:45.287Z,20.02
2019-04-16T10:48:23.734Z,21.45
2019-04-16T10:50:59.136Z,20.43
2019-04-16T10:53:34.348Z,20.00
2019-04-16T10:56:23.463Z,19.25
2019-04-16T10:59:12.567Z,20.88
2019-04-16T11:02:09.736Z,21.67
2019-04-16T11:04:45.155Z,21.40
2019-04-16T11:07:18.217Z,20.25
2019-04-16T11:09:50.747Z,20.55
2019-04-16T11:12:22.383Z,19.20
2019-04-16T11:14:53.227Z,21.65
2019-04-16T11:17:26.972Z,20.45
2019-04-16T11:20:00.155Z,21.23
2019-04-16T11:22:31.680Z,20.77
2019-04-16T11:25:02.846Z,20.20
2019-04-16T11:27:35.008Z,20.75
2019-04-16T11:30:09.180Z,20.60
2019-04-16T11:32:40.269Z,19.92
2019-04-16T11:35:12.954Z,23.90
2019-04-16T11:37:44.744Z,20.43
2019-04-16T11:40:15.719Z,18.92
2019-04-16T11:42:46.450Z,19.05
2019-04-16T11:45:17.499Z,21.50
2019-04-16T11:47:48.554Z,23.02
2019-04-16T11:50:19.397Z,19.77
2019-04-16T11:52:50.158Z,21.57
2019-04-16T11:55:20.866Z,22.22
2019-04-16T11:57:51.662Z,23.45
2019-04-16T12:00:36.197Z,21.97
2019-04-16T12:03:08.475Z,20.97
2019-04-16T12:05:49.408Z,20.45
2019-04-16T12:08:38.183Z,20.05
2019-04-16T12:11:23.515Z,20.08
2019-04-16T12:17:27.599Z,16.90
2019-04-16T12:19:59.895Z,18.65
2019-04-16T12:22:35.117Z,18.67
2019-04-16T12:25:14.562Z,18.92
2019-04-16T12:27:51.013Z,18.87
2019-04-16T12:30:23.386Z,19.42
2019-04-16T12:33:04.806Z,17.90
2019-04-16T12:35:46.043Z,18.17
2019-04-16T12:38:27.269Z,20.08
2019-04-16T12:41:17.626Z,18.17
2019-04-16T12:43:52.481Z,17.40
2019-04-16T12:46:24.885Z,16.87
2019-04-16T12:49:00.262Z,15.20
2019-04-16T12:51:32.521Z,13.75
2019-04-16T12:54:04.970Z,12.70
2019-04-16T12:56:54.989Z,14.70
2019-04-16T12:59:42.691Z,16.23
2019-04-16T13:02:24.062Z,13.85
2019-04-16T13:05:11.358Z,14.33
2019-04-16T13:07:43.463Z,15.58
2019-04-16T13:10:18.809Z,13.60
2019-04-16T13:12:54.696Z,12.80
2019-04-16T13:15:41.950Z,13.25
2019-04-16T13:18:20.502Z,14.15
2019-04-16T13:21:05.104Z,14.28
2019-04-16T13:23:44.760Z,13.58
2019-04-16T13:26:29.218Z,11.80
2019-04-16T13:29:01.433Z,12.65
2019-04-16T13:31:32.090Z,13.58
2019-04-16T13:34:02.753Z,12.25
2019-04-16T13:36:33.496Z,12.00
2019-04-16T13:39:09.884Z,12.33
2019-04-16T13:41:40.788Z,11.25
2019-04-16T13:44:16.679Z,12.30
2019-04-16T13:46:46.537Z,11.85
2019-04-16T13:49:24.350Z,11.53
2019-04-16T13:51:57.287Z,12.82
2019-04-16T13:54:34.963Z,12.37
2019-04-16T13:57:08.582Z,12.45
2019-04-16T13:59:56.210Z,12.28
2019-04-16T14:02:34.151Z,14.00
2019-04-16T14:05:05.915Z,13.95
2019-04-16T14:07:36.586Z,13.98
2019-04-16T14:10:08.438Z,13.13
2019-04-16T14:12:42.073Z,13.05
2019-04-16T14:15:13.628Z,11.75
2019-04-16T14:17:52.389Z,11.38
2019-04-16T14:20:16.850Z,11.75
2019-04-16T14:22:47.652Z,11.93
2019-04-16T14:25:18.435Z,12.15
2019-04-16T14:27:49.158Z,11.10
2019-04-16T14:30:21.462Z,12.35
2019-04-16T14:32:52.126Z,12.60
2019-04-16T14:35:32.874Z,12.35
2019-04-16T14:37:57.855Z,12.28
2019-04-16T14:40:28.899Z,11.60
2019-04-16T14:42:59.879Z,10.60
2019-04-16T14:45:53.419Z,11.50
2019-04-16T14:48:08.920Z,12.18
2019-04-16T14:50:39.659Z,11.90
2019-04-16T14:53:10.291Z,11.57
2019-04-16T14:56:00.708Z,12.13
2019-04-16T14:58:41.505Z,11.10
2019-04-16T15:01:13.654Z,11.40
2019-04-16T15:03:55.200Z,10.78
2019-04-16T15:06:33.138Z,10.53
2019-04-16T15:09:22.688Z,11.10
2019-04-16T15:11:57.864Z,11.75
2019-04-16T15:14:34.500Z,9.85
2019-04-16T15:17:19.861Z,10.43
2019-04-16T15:19:55.235Z,10.58
2019-04-16T15:22:27.350Z,10.50
2019-04-16T15:25:11.905Z,11.48
2019-04-16T15:27:49.405Z,10.40
2019-04-16T15:30:20.767Z,10.82
2019-04-16T15:33:09.023Z,11.48
2019-04-16T15:35:43.737Z,11.48
2019-04-16T15:38:31.147Z,10.82
2019-04-16T15:41:18.494Z,11.03
2019-04-16T15:44:07.148Z,11.08
2019-04-16T15:46:41.390Z,10.88
2019-04-16T15:49:13.222Z,10.60
2019-04-16T15:51:50.659Z,10.53
2019-04-16T15:54:23.101Z,10.55
2019-04-16T15:57:08.006Z,10.20
2019-04-16T15:59:45.149Z,10.90
2019-04-16T16:02:35.170Z,13.10
2019-04-16T16:05:08.793Z,12.58
2019-04-16T16:07:42.182Z,11.05
2019-04-16T16:10:14.466Z,10.48
2019-04-16T16:12:45.234Z,11.22
2019-04-16T16:15:17.124Z,11.80
2019-04-16T16:17:47.912Z,11.80
2019-04-16T16:20:19.033Z,12.28
2019-04-16T16:22:49.807Z,12.78
2019-04-16T16:25:20.445Z,12.30
2019-04-16T16:27:51.270Z,10.88
2019-04-16T16:30:21.930Z,11.20
2019-04-16T16:32:52.596Z,10.68
2019-04-16T16:35:23.155Z,11.33
2019-04-16T16:37:54.306Z,12.40
2019-04-16T16:40:25.046Z,11.97
2019-04-16T16:42:55.831Z,11.50
2019-04-16T16:45:46.695Z,10.38
2019-04-16T16:48:17.376Z,10.82
2019-04-16T16:50:51.465Z,9.53
2019-04-16T16:53:28.315Z,10.35
2019-04-16T16:56:00.621Z,10.88
2019-04-16T16:58:32.947Z,10.20
2019-04-16T17:01:05.100Z,10.40
2019-04-16T17:03:46.306Z,9.98
2019-04-16T17:06:18.681Z,10.72
2019-04-16T17:08:49.378Z,9.83
2019-04-16T17:11:20.123Z,11.25
2019-04-16T17:13:51.956Z,11.97
2019-04-16T17:16:27.434Z,13.38
2019-04-16T17:19:01.585Z,12.65
2019-04-16T17:21:32.462Z,11.28
2019-04-16T17:24:03.118Z,11.33
2019-04-16T17:26:33.783Z,12.68
2019-04-16T17:29:04.721Z,12.93
2019-04-16T17:31:36.255Z,12.98
2019-04-16T17:34:10.666Z,12.55
2019-04-16T17:36:41.754Z,12.23
2019-04-16T17:39:16.409Z,12.82
2019-04-16T17:41:54.903Z,12.58
2019-04-16T17:44:27.481Z,13.35
2019-04-16T17:47:00.159Z,13.70
2019-04-16T17:49:48.670Z,13.35
2019-04-16T17:52:32.888Z,13.20
2019-04-16T17:55:11.662Z,13.65
2019-04-16T17:57:53.567Z,14.93
2019-04-16T18:00:31.370Z,13.78
2019-04-16T18:03:19.394Z,15.90
2019-04-16T18:05:52.847Z,14.23
2019-04-16T18:08:28.023Z,11.90
2019-04-16T18:11:09.715Z,12.58
2019-04-16T18:13:52.223Z,12.88
2019-04-16T18:16:36.678Z,17.55
2019-04-16T18:19:12.745Z,13.18
2019-04-16T18:21:45.170Z,13.68
2019-04-16T18:24:33.867Z,13.50
2019-04-16T18:27:09.105Z,13.30
2019-04-16T18:29:44.022Z,13.32
2019-04-16T18:32:22.655Z,13.62
2019-04-16T18:34:55.162Z,13.93
2019-04-16T18:37:39.898Z,16.48
2019-04-16T18:40:12.356Z,15.75
2019-04-16T18:43:01.203Z,15.23
2019-04-16T18:45:52.322Z,16.02
2019-04-16T18:48:28.470Z,16.35
2019-04-16T18:51:00.521Z,16.20
2019-04-16T18:53:31.395Z,17.50
2019-04-16T18:56:02.144Z,15.75
2019-04-16T18:58:33.295Z,18.70
2019-04-16T19:01:24.678Z,36.30
2019-04-16T19:03:53.418Z,26.62
2019-04-16T19:06:24.122Z,16.42
2019-04-16T19:08:54.914Z,15.85
2019-04-16T19:11:25.560Z,15.00
2019-04-16T19:13:56.222Z,16.67
2019-04-16T19:16:26.851Z,16.40
2019-04-16T19:18:57.701Z,19.12
2019-04-16T19:21:28.510Z,20.82
2019-04-16T19:23:59.188Z,18.55
2019-04-16T19:26:30.338Z,17.87
2019-04-16T19:29:01.276Z,16.70
2019-04-16T19:31:32.032Z,16.60
2019-04-16T19:34:05.661Z,21.37
2019-04-16T19:36:35.943Z,20.32
2019-04-16T19:39:13.797Z,18.67
2019-04-16T19:41:41.362Z,18.35
2019-04-16T19:44:12.266Z,18.17
2019-04-16T19:46:45.920Z,18.17
2019-04-16T19:49:15.275Z,18.80
2019-04-16T19:51:45.892Z,17.87
2019-04-16T19:54:19.151Z,19.65
2019-04-16T19:56:59.489Z,19.30
2019-04-16T19:59:46.395Z,20.27
2019-04-16T20:02:22.923Z,20.43
2019-04-16T20:05:06.190Z,21.23
2019-04-16T20:07:49.463Z,20.37
2019-04-16T20:10:23.089Z,20.75
2019-04-16T20:12:53.713Z,20.88
2019-04-16T20:15:25.937Z,20.52
2019-04-16T20:17:56.589Z,20.35
2019-04-16T20:20:27.397Z,19.67
2019-04-16T20:22:58.011Z,20.60
2019-04-16T20:25:28.673Z,22.20
2019-04-16T20:27:59.616Z,22.75
2019-04-16T20:30:30.452Z,21.77
2019-04-16T20:33:01.018Z,22.45
2019-04-16T20:35:31.910Z,23.55
2019-04-16T20:38:02.749Z,23.75
2019-04-16T20:40:33.561Z,24.30
2019-04-16T20:43:04.134Z,24.07
2019-04-16T20:45:34.999Z,24.02
2019-04-16T20:48:09.080Z,23.73
2019-04-16T20:50:39.260Z,22.85
2019-04-16T20:53:09.927Z,23.65
2019-04-16T20:55:47.457Z,22.75
2019-04-16T20:58:19.151Z,21.82
2019-04-16T21:00:51.737Z,21.90
2019-04-16T21:03:22.895Z,30.10
2019-04-16T21:05:59.160Z,38.28
2019-04-16T21:08:25.902Z,48.70
2019-04-16T21:10:58.879Z,25.97
2019-04-16T21:13:28.746Z,22.82
2019-04-16T21:16:01.680Z,23.20
2019-04-16T21:18:31.721Z,23.27
2019-04-16T21:21:02.540Z,23.87
2019-04-16T21:23:34.740Z,22.22
2019-04-16T21:26:06.141Z,23.55
2019-04-16T21:28:41.478Z,23.15
2019-04-16T21:31:17.007Z,22.85
2019-04-16T21:33:52.065Z,22.77
2019-04-16T21:36:38.623Z,23.83
2019-04-16T21:39:17.093Z,22.80
2019-04-16T21:41:46.429Z,23.35
2019-04-16T21:44:17.099Z,22.37
2019-04-16T21:46:51.947Z,23.00
2019-04-16T21:49:20.102Z,23.42
2019-04-16T21:52:07.976Z,23.25
2019-04-16T21:54:39.697Z,21.68
2019-04-16T21:57:13.526Z,23.45
2019-04-16T21:59:42.536Z,23.00
2019-04-16T22:02:17.731Z,22.27
2019-04-16T22:04:49.417Z,23.30
2019-04-16T22:07:24.182Z,22.90
2019-04-16T22:09:52.679Z,22.55
2019-04-16T22:12:23.401Z,22.50
2019-04-16T22:14:55.138Z,23.57
2019-04-16T22:17:26.222Z,23.40
2019-04-16T22:20:01.735Z,22.85
2019-04-16T22:22:29.232Z,22.17
2019-04-16T22:25:00.895Z,21.62
2019-04-16T22:27:32.949Z,21.70
2019-04-16T22:30:04.340Z,21.75
2019-04-16T22:32:35.140Z,21.25
2019-04-16T22:35:06.795Z,20.57
2019-04-16T22:37:37.544Z,20.27
2019-04-16T22:40:12.659Z,20.68
2019-04-16T22:42:50.812Z,20.25
2019-04-16T22:45:29.430Z,19.42
2019-04-16T22:48:00.351Z,20.23
2019-04-16T22:50:31.082Z,20.02
2019-04-16T22:53:02.828Z,19.92
2019-04-16T22:55:33.451Z,19.90
2019-04-16T22:58:05.427Z,22.00
2019-04-16T23:00:37.714Z,21.37
2019-04-16T23:03:08.497Z,22.05
2019-04-16T23:05:39.147Z,22.00
2019-04-16T23:08:12.870Z,21.15
2019-04-16T23:10:43.291Z,20.08
2019-04-16T23:13:13.972Z,20.55
2019-04-16T23:15:44.738Z,20.37
2019-04-16T23:18:17.486Z,21.35
2019-04-16T23:20:48.667Z,20.97
2019-04-16T23:23:20.544Z,21.52
2019-04-16T23:25:52.065Z,22.25
2019-04-16T23:28:22.695Z,21.65
2019-04-16T23:30:53.254Z,19.02
2019-04-16T23:33:24.024Z,19.60
2019-04-16T23:35:55.655Z,20.62
2019-04-16T23:38:31.250Z,21.57
2019-04-16T23:40:58.031Z,22.22
2019-04-16T23:43:46.478Z,22.15
2019-04-16T23:46:20.845Z,21.02
2019-04-16T23:48:59.002Z,21.85
2019-04-16T23:51:44.244Z,21.30
2019-04-16T23:54:19.279Z,21.62
2019-04-16T23:57:03.665Z,22.02
2019-04-16T23:59:36.849Z,23.15
